This is the latest recevied weather packets stored in our database for station/object SQ6IUS-13. If no packets are shown the sender has not sent any weather packets the latest 1 day(s).
| Time | Temp. | Humidity | Pressure | Rain* | Wind** | Luminosity | Snow |
|---|---|---|---|---|---|---|---|
| 1778040969 | 8.33° C | 100% | 1005.6 hPa | - | - | - | - |
| 1778040070 | 7.78° C | 100% | 1005.3 hPa | - | - | - | - |
| 1778039171 | 7.22° C | 100% | 1005 hPa | - | - | - | - |
| 1778038272 | 7.22° C | 100% | 1004.8 hPa | - | - | - | - |
| 1778037373 | 7.22° C | 100% | 1005 hPa | - | - | - | - |
| 1778036474 | 7.22° C | 100% | 1005.2 hPa | - | - | - | - |
| 1778035574 | 7.78° C | 100% | 1005.2 hPa | - | - | - | - |
| 1778034676 | 7.78° C | 100% | 1005.5 hPa | - | - | - | - |
| 1778033776 | 8.33° C | 100% | 1005.4 hPa | - | - | - | - |
| 1778032878 | 7.78° C | 100% | 1005.5 hPa | - | - | - | - |
| 1778031979 | 8.33° C | 100% | 1005.4 hPa | - | - | - | - |
| 1778031079 | 8.33° C | 100% | 1005.5 hPa | - | - | - | - |
| 1778028383 | 8.89° C | 100% | 1005.3 hPa | - | - | - | - |
| 1778027484 | 9.44° C | 100% | 1005.2 hPa | - | - | - | - |
| 1778026585 | 9.44° C | 100% | 1005.2 hPa | - | - | - | - |
| 1778025687 | 9.44° C | 100% | 1005.2 hPa | - | - | - | - |
| 1778024788 | 9.44° C | 100% | 1005.2 hPa | - | - | - | - |
| 1778017598 | 14.44° C | 100% | 1005.8 hPa | - | - | - | - |
| 1778015801 | 15° C | 100% | 1005.7 hPa | - | - | - | - |
| 1778014903 | 15° C | 100% | 1005.8 hPa | - | - | - | - |
* Rain since midnight (hover to see other rain measurements)
** Current wind speed in m/s (hover to see current wind gust speed)